Time;durP1;ratioP1;P1;durP2;ratioP2;P2;SDS_P1;SDS_P2;PMS_P1;PMS_P2;Temp;Humidity;BMP_temperature;BMP_pressure;BME280_temperature;BME280_humidity;BME280_pressure;Samples;Min_cycle;Max_cycle;Signal;HPM_P1;HPM_P2
2022/05/28 00:00:07;;;;;;;6.77;4.37;;;;;;;;;;4971908;28;20180;-75
2022/05/28 00:02:32;;;;;;;5.97;4.03;;;;;;;;;;4983564;28;20181;-76
2022/05/28 00:04:58;;;;;;;6.63;4.50;;;;;;;;;;4961172;28;20367;-75
2022/05/28 00:07:23;;;;;;;8.20;4.13;;;;;;;;;;4962196;28;20223;-76
2022/05/28 00:09:48;;;;;;;6.93;4.10;;;;;;;;;;4953418;28;20197;-75
2022/05/28 00:12:13;;;;;;;4.97;3.67;;;;;;;;;;4947335;28;20192;-76
2022/05/28 00:14:39;;;;;;;6.40;4.03;;;;;;;;;;4973564;28;20248;-76
2022/05/28 00:17:05;;;;;;;6.37;4.10;;;;;;;;;;4961846;28;20181;-76
2022/05/28 00:19:30;;;;;;;6.03;3.40;;;;;;;;;;4955269;28;20272;-76
2022/05/28 00:21:55;;;;;;;5.03;3.83;;;;;;;;;;4952207;28;20182;-76
2022/05/28 00:24:20;;;;;;;5.57;3.97;;;;;;;;;;4950673;28;20212;-76
2022/05/28 00:26:46;;;;;;;4.63;3.43;;;;;;;;;;4948850;28;20188;-76
2022/05/28 00:29:11;;;;;;;5.00;3.33;;;;;;;;;;4951878;28;20225;-76
2022/05/28 00:31:36;;;;;;;5.50;3.50;;;;;;;;;;4969600;28;20189;-76
2022/05/28 00:34:01;;;;;;;5.53;3.70;;;;;;;;;;4982664;28;20201;-76
2022/05/28 00:36:26;;;;;;;6.70;3.10;;;;;;;;;;4959620;28;20209;-76
2022/05/28 00:38:52;;;;;;;6.80;3.63;;;;;;;;;;4960206;28;20191;-76
2022/05/28 00:41:17;;;;;;;5.90;3.63;;;;;;;;;;4951790;28;20216;-76
2022/05/28 00:43:43;;;;;;;7.77;3.33;;;;;;;;;;4982737;28;20235;-76
2022/05/28 00:46:29;;;;;;;8.23;3.30;;;;;;;;;;4952739;28;20185;-76
2022/05/28 00:49:00;;;;;;;6.30;3.37;;;;;;;;;;4952870;28;20196;-76
2022/05/28 00:51:27;;;;;;;3.67;3.13;;;;;;;;;;4979418;28;20184;-76
2022/05/28 00:53:54;;;;;;;3.27;2.87;;;;;;;;;;4955030;28;20279;-76
2022/05/28 00:56:22;;;;;;;6.53;2.87;;;;;;;;;;4952884;28;20253;-76
2022/05/28 00:58:48;;;;;;;5.80;3.00;;;;;;;;;;4974265;28;20191;-76
2022/05/28 01:01:14;;;;;;;6.60;2.80;;;;;;;;;;4956809;28;20201;-76
2022/05/28 01:03:41;;;;;;;6.17;3.67;;;;;;;;;;4955981;28;20208;-76
2022/05/28 01:06:21;;;;;;;5.93;3.20;;;;;;;;;;4979607;28;20318;-76
2022/05/28 01:08:53;;;;;;;7.67;4.10;;;;;;;;;;4955734;28;20191;-76
2022/05/28 01:11:23;;;;;;;6.40;3.57;;;;;;;;;;4955347;28;20191;-76
2022/05/28 01:14:00;;;;;;;7.30;3.37;;;;;;;;;;4953279;28;20197;-76
2022/05/28 01:16:34;;;;;;;4.83;3.03;;;;;;;;;;4969079;28;20216;-76
2022/05/28 01:19:20;;;;;;;6.93;3.30;;;;;;;;;;4957472;28;20186;-75
2022/05/28 01:21:56;;;;;;;6.53;4.43;;;;;;;;;;4950020;28;20195;-76
2022/05/28 01:24:32;;;;;;;6.40;3.00;;;;;;;;;;4986640;28;20180;-76
2022/05/28 01:27:00;;;;;;;5.90;3.10;;;;;;;;;;4970663;28;20179;-76
2022/05/28 01:29:28;;;;;;;4.67;3.20;;;;;;;;;;4956368;28;20192;-76
2022/05/28 01:31:54;;;;;;;6.30;3.20;;;;;;;;;;4944811;28;20183;-75
2022/05/28 01:34:20;;;;;;;7.03;3.17;;;;;;;;;;4952944;28;20191;-76
2022/05/28 01:36:48;;;;;;;9.43;3.93;;;;;;;;;;4972752;28;20208;-76
2022/05/28 01:39:14;;;;;;;7.37;3.03;;;;;;;;;;4953814;28;20198;-75
2022/05/28 01:41:39;;;;;;;6.43;3.20;;;;;;;;;;4978636;28;20292;-76
2022/05/28 01:44:07;;;;;;;4.10;2.43;;;;;;;;;;4947326;28;20183;-76
2022/05/28 01:46:33;;;;;;;7.93;4.00;;;;;;;;;;4974630;28;20410;-76
2022/05/28 01:48:58;;;;;;;10.57;3.93;;;;;;;;;;4951904;28;20187;-76
2022/05/28 01:51:25;;;;;;;6.10;3.30;;;;;;;;;;4952983;28;20190;-76
2022/05/28 01:54:07;;;;;;;7.17;3.37;;;;;;;;;;4942357;28;20222;-75
2022/05/28 01:56:33;;;;;;;5.63;3.03;;;;;;;;;;4947375;28;20205;-75
2022/05/28 01:58:59;;;;;;;5.77;3.10;;;;;;;;;;4951724;28;20270;-76
2022/05/28 02:01:24;;;;;;;6.17;3.17;;;;;;;;;;4956167;28;20293;-75
2022/05/28 02:03:51;;;;;;;5.00;2.87;;;;;;;;;;4951851;28;20198;-76
2022/05/28 02:06:16;;;;;;;4.77;2.93;;;;;;;;;;4951352;28;20284;-75
2022/05/28 02:08:43;;;;;;;5.50;2.97;;;;;;;;;;4953008;28;20258;-75
2022/05/28 02:11:16;;;;;;;6.90;3.10;;;;;;;;;;4969738;28;20216;-75
2022/05/28 02:13:58;;;;;;;4.73;3.00;;;;;;;;;;4949453;28;20233;-75
2022/05/28 02:16:30;;;;;;;6.40;3.20;;;;;;;;;;4972116;28;20249;-75
2022/05/28 02:18:59;;;;;;;7.23;3.43;;;;;;;;;;4958919;28;20180;-75
2022/05/28 02:21:27;;;;;;;7.43;3.60;;;;;;;;;;4964564;28;20177;-76
2022/05/28 02:23:55;;;;;;;6.83;3.10;;;;;;;;;;4969653;28;20173;-75
2022/05/28 02:26:33;;;;;;;5.07;3.10;;;;;;;;;;4955015;28;20189;-76
2022/05/28 02:28:59;;;;;;;6.03;3.13;;;;;;;;;;4973191;28;20264;-75
2022/05/28 02:31:25;;;;;;;6.87;3.50;;;;;;;;;;4956662;28;20200;-76
2022/05/28 02:33:51;;;;;;;6.97;3.23;;;;;;;;;;4953779;28;20779;-75
2022/05/28 02:36:17;;;;;;;6.60;3.20;;;;;;;;;;4964831;28;20296;-76
2022/05/28 02:38:42;;;;;;;6.00;2.97;;;;;;;;;;4962109;28;20188;-75
2022/05/28 02:41:07;;;;;;;6.80;2.90;;;;;;;;;;4956179;28;20186;-76
2022/05/28 02:43:36;;;;;;;4.43;2.83;;;;;;;;;;4976559;28;20177;-76
2022/05/28 02:46:02;;;;;;;4.23;3.00;;;;;;;;;;4951352;28;20273;-75
2022/05/28 02:48:27;;;;;;;8.40;2.90;;;;;;;;;;4984325;28;20273;-75
2022/05/28 02:50:52;;;;;;;11.63;3.47;;;;;;;;;;4957589;28;20210;-76
2022/05/28 02:53:18;;;;;;;8.70;3.07;;;;;;;;;;4973528;28;20193;-75
2022/05/28 02:55:43;;;;;;;8.03;2.90;;;;;;;;;;4958975;28;20264;-75
2022/05/28 02:58:08;;;;;;;5.80;2.87;;;;;;;;;;4966485;28;20182;-75
2022/05/28 03:00:34;;;;;;;4.93;2.60;;;;;;;;;;4958558;28;20198;-75
2022/05/28 03:02:59;;;;;;;7.93;3.33;;;;;;;;;;4952181;28;20245;-75
2022/05/28 03:05:25;;;;;;;8.40;2.70;;;;;;;;;;4976805;28;20229;-75
2022/05/28 03:07:50;;;;;;;6.00;2.90;;;;;;;;;;4954762;28;20189;-75
2022/05/28 03:10:16;;;;;;;5.07;2.43;;;;;;;;;;4976884;28;20267;-75
2022/05/28 03:12:41;;;;;;;5.17;3.30;;;;;;;;;;4969272;28;20208;-76
2022/05/28 03:15:07;;;;;;;8.30;3.87;;;;;;;;;;4957886;28;20209;-75
2022/05/28 03:17:32;;;;;;;7.17;2.87;;;;;;;;;;4956057;28;20172;-75
2022/05/28 03:20:01;;;;;;;6.13;2.80;;;;;;;;;;4950790;28;20190;-75
2022/05/28 03:22:27;;;;;;;9.80;3.77;;;;;;;;;;4954418;28;20245;-76
2022/05/28 03:24:52;;;;;;;5.17;2.47;;;;;;;;;;4958392;28;20325;-75
2022/05/28 03:27:17;;;;;;;8.43;3.20;;;;;;;;;;4955313;28;20182;-75
2022/05/28 03:29:42;;;;;;;6.20;2.80;;;;;;;;;;4961008;28;21040;-75
2022/05/28 03:32:08;;;;;;;8.53;3.43;;;;;;;;;;4955978;28;20223;-75
2022/05/28 03:34:33;;;;;;;6.07;3.00;;;;;;;;;;4974837;28;20213;-76
2022/05/28 03:36:58;;;;;;;4.17;2.40;;;;;;;;;;4992875;28;20242;-76
2022/05/28 03:39:23;;;;;;;6.80;2.70;;;;;;;;;;4984658;28;20180;-76
2022/05/28 03:41:49;;;;;;;6.00;2.70;;;;;;;;;;4965456;28;20249;-75
2022/05/28 03:44:14;;;;;;;6.37;2.50;;;;;;;;;;4961978;28;20181;-75
2022/05/28 03:46:39;;;;;;;5.83;2.70;;;;;;;;;;4972172;28;20193;-75
2022/05/28 03:49:12;;;;;;;5.57;2.13;;;;;;;;;;4970760;28;20253;-75
2022/05/28 03:51:37;;;;;;;10.53;2.67;;;;;;;;;;4955488;28;20181;-76
2022/05/28 03:54:02;;;;;;;5.40;2.40;;;;;;;;;;4961440;28;20190;-76
2022/05/28 03:56:30;;;;;;;7.37;2.33;;;;;;;;;;4957560;28;20200;-75
2022/05/28 03:58:56;;;;;;;6.43;2.27;;;;;;;;;;4955429;28;20181;-76
2022/05/28 04:01:21;;;;;;;6.87;2.67;;;;;;;;;;4962920;28;20208;-75
2022/05/28 04:03:46;;;;;;;5.23;3.30;;;;;;;;;;4950039;28;20169;-75
2022/05/28 04:06:12;;;;;;;5.13;2.80;;;;;;;;;;4973360;28;20229;-75
2022/05/28 04:08:37;;;;;;;7.23;2.30;;;;;;;;;;4956461;28;20181;-76
2022/05/28 04:11:02;;;;;;;8.43;2.37;;;;;;;;;;4946361;28;20186;-75
2022/05/28 04:13:27;;;;;;;9.70;2.63;;;;;;;;;;4970612;28;20185;-75
2022/05/28 04:15:52;;;;;;;7.93;2.37;;;;;;;;;;4989918;28;20212;-75
2022/05/28 04:18:18;;;;;;;8.73;2.47;;;;;;;;;;4958306;28;20177;-75
2022/05/28 04:20:43;;;;;;;7.40;2.70;;;;;;;;;;4953159;28;20319;-75
2022/05/28 04:23:08;;;;;;;7.50;2.57;;;;;;;;;;4956461;28;20188;-75
2022/05/28 04:25:33;;;;;;;5.63;2.10;;;;;;;;;;4959975;28;20173;-75
2022/05/28 04:27:59;;;;;;;5.70;2.50;;;;;;;;;;4949028;28;20283;-75
2022/05/28 04:30:24;;;;;;;6.50;2.33;;;;;;;;;;4967580;28;20299;-75
2022/05/28 04:32:49;;;;;;;7.00;2.10;;;;;;;;;;4950220;28;20189;-75
2022/05/28 04:35:14;;;;;;;3.90;2.00;;;;;;;;;;4980606;28;20265;-76
2022/05/28 04:37:40;;;;;;;5.13;2.93;;;;;;;;;;4974640;28;20181;-75
2022/05/28 04:40:05;;;;;;;4.13;2.13;;;;;;;;;;4972255;28;20215;-75
2022/05/28 04:42:31;;;;;;;6.10;2.90;;;;;;;;;;4943596;28;20195;-76
2022/05/28 04:44:56;;;;;;;3.30;2.30;;;;;;;;;;4954836;28;20216;-75
2022/05/28 04:47:22;;;;;;;6.80;2.70;;;;;;;;;;4980251;28;20234;-76
2022/05/28 04:49:47;;;;;;;7.30;2.90;;;;;;;;;;4974514;28;20177;-76
2022/05/28 04:52:12;;;;;;;8.30;2.60;;;;;;;;;;4976213;28;20177;-76
2022/05/28 04:54:38;;;;;;;4.23;1.90;;;;;;;;;;4955743;28;20189;-75
2022/05/28 04:57:03;;;;;;;4.50;2.73;;;;;;;;;;4959188;28;20268;-75
2022/05/28 04:59:28;;;;;;;5.63;2.10;;;;;;;;;;4978208;28;20180;-75
2022/05/28 05:01:53;;;;;;;6.80;1.97;;;;;;;;;;4961459;28;20292;-75
2022/05/28 05:04:19;;;;;;;4.97;2.13;;;;;;;;;;4973020;28;20324;-75
2022/05/28 05:06:44;;;;;;;5.83;2.00;;;;;;;;;;4994504;28;20211;-76
2022/05/28 05:09:12;;;;;;;6.57;1.90;;;;;;;;;;4985748;28;20184;-75
2022/05/28 05:11:37;;;;;;;4.83;1.90;;;;;;;;;;4975207;28;20189;-75
2022/05/28 05:14:02;;;;;;;5.40;2.30;;;;;;;;;;4983127;28;20327;-75
2022/05/28 05:16:28;;;;;;;3.67;1.93;;;;;;;;;;4955607;28;20212;-75
2022/05/28 05:18:53;;;;;;;6.90;2.00;;;;;;;;;;4957479;28;20189;-75
2022/05/28 05:21:18;;;;;;;4.93;2.50;;;;;;;;;;4958790;28;20318;-75
2022/05/28 05:23:44;;;;;;;5.17;2.37;;;;;;;;;;4982450;28;20222;-75
2022/05/28 05:26:10;;;;;;;4.70;2.53;;;;;;;;;;4958222;28;20184;-75
2022/05/28 05:28:35;;;;;;;7.43;2.10;;;;;;;;;;4955751;28;20180;-75
2022/05/28 05:31:00;;;;;;;6.67;2.17;;;;;;;;;;4955890;28;20195;-75
2022/05/28 05:33:26;;;;;;;4.13;2.03;;;;;;;;;;4959042;28;20191;-75
2022/05/28 05:35:51;;;;;;;7.23;1.90;;;;;;;;;;4951157;28;20208;-75
2022/05/28 05:38:18;;;;;;;4.33;2.40;;;;;;;;;;4956989;28;20176;-75
2022/05/28 05:40:44;;;;;;;3.60;1.80;;;;;;;;;;4984390;28;20188;-75
2022/05/28 05:43:09;;;;;;;4.70;2.37;;;;;;;;;;4954250;28;20173;-75
2022/05/28 05:45:34;;;;;;;4.80;2.10;;;;;;;;;;4954069;28;20212;-75
2022/05/28 05:48:00;;;;;;;8.00;2.40;;;;;;;;;;4967890;28;20518;-75
2022/05/28 05:50:25;;;;;;;5.17;1.93;;;;;;;;;;4974636;28;20255;-75
2022/05/28 05:52:50;;;;;;;5.27;2.07;;;;;;;;;;4956416;28;20221;-75
2022/05/28 05:55:16;;;;;;;7.23;3.67;;;;;;;;;;4953928;28;20209;-75
2022/05/28 05:57:41;;;;;;;3.67;1.80;;;;;;;;;;4973587;28;20172;-75
2022/05/28 06:00:07;;;;;;;6.30;2.00;;;;;;;;;;4972055;28;20179;-75
2022/05/28 06:02:32;;;;;;;2.73;1.70;;;;;;;;;;4953929;28;20179;-75
2022/05/28 06:04:58;;;;;;;3.53;1.60;;;;;;;;;;4956557;28;20286;-75
2022/05/28 06:07:23;;;;;;;4.33;2.33;;;;;;;;;;4969716;28;20199;-75
2022/05/28 06:09:48;;;;;;;6.30;1.87;;;;;;;;;;4987955;28;20194;-75
2022/05/28 06:12:17;;;;;;;7.63;2.23;;;;;;;;;;4952351;28;20231;-74
2022/05/28 06:14:42;;;;;;;4.93;2.33;;;;;;;;;;4972538;28;20181;-75
2022/05/28 06:17:07;;;;;;;6.33;2.10;;;;;;;;;;4963420;28;20208;-74
2022/05/28 06:19:32;;;;;;;5.17;1.97;;;;;;;;;;4953782;28;20272;-75
2022/05/28 06:21:59;;;;;;;1.70;1.60;;;;;;;;;;4949651;28;20184;-74
2022/05/28 06:24:24;;;;;;;4.47;1.83;;;;;;;;;;4966805;28;20309;-74
2022/05/28 06:26:49;;;;;;;2.53;1.80;;;;;;;;;;4948451;28;20275;-75
2022/05/28 06:29:14;;;;;;;7.27;2.00;;;;;;;;;;4945209;28;20181;-75
2022/05/28 06:31:39;;;;;;;2.57;1.50;;;;;;;;;;4950283;28;20207;-75
2022/05/28 06:34:04;;;;;;;3.53;1.73;;;;;;;;;;4974860;28;20184;-75
2022/05/28 06:36:30;;;;;;;4.53;2.83;;;;;;;;;;4955187;28;20299;-74
2022/05/28 06:38:55;;;;;;;4.63;1.60;;;;;;;;;;4969652;28;20177;-74
2022/05/28 06:41:20;;;;;;;4.07;1.80;;;;;;;;;;4950242;28;20213;-74
2022/05/28 06:46:13;;;;;;;6.50;2.10;;;;;;;;;;4967418;28;20256;-74
2022/05/28 06:48:38;;;;;;;5.10;1.70;;;;;;;;;;4954372;28;20241;-74
2022/05/28 06:51:05;;;;;;;6.50;1.83;;;;;;;;;;4959553;28;20177;-74
2022/05/28 06:53:35;;;;;;;5.13;2.00;;;;;;;;;;4961072;28;20193;-74
2022/05/28 06:56:00;;;;;;;2.87;1.70;;;;;;;;;;4949991;28;20245;-74
2022/05/28 06:58:26;;;;;;;1.93;1.50;;;;;;;;;;4962312;28;20184;-74
2022/05/28 07:00:51;;;;;;;5.57;1.43;;;;;;;;;;4960466;28;20208;-74
2022/05/28 07:03:19;;;;;;;4.53;2.13;;;;;;;;;;4989436;28;20188;-74
2022/05/28 07:05:44;;;;;;;6.67;2.20;;;;;;;;;;4969994;28;20196;-74
2022/05/28 07:08:10;;;;;;;4.10;1.70;;;;;;;;;;4974498;28;20187;-73
2022/05/28 07:10:38;;;;;;;4.20;1.73;;;;;;;;;;4992610;28;20207;-74
2022/05/28 07:13:04;;;;;;;2.67;1.60;;;;;;;;;;4980849;28;20213;-74
2022/05/28 07:15:29;;;;;;;2.63;1.60;;;;;;;;;;4970256;28;20215;-73
2022/05/28 07:17:54;;;;;;;3.73;1.87;;;;;;;;;;4970784;28;21236;-74
2022/05/28 07:20:19;;;;;;;5.97;1.83;;;;;;;;;;4985991;28;20189;-74
2022/05/28 07:22:45;;;;;;;5.43;1.80;;;;;;;;;;4965868;28;20181;-74
2022/05/28 07:25:10;;;;;;;3.63;2.10;;;;;;;;;;4992030;28;20322;-73
2022/05/28 07:27:35;;;;;;;5.63;2.13;;;;;;;;;;4976447;28;20227;-73
2022/05/28 07:30:01;;;;;;;4.40;1.03;;;;;;;;;;4977812;28;20191;-73
2022/05/28 07:32:29;;;;;;;3.60;1.53;;;;;;;;;;4974619;28;20177;-73
2022/05/28 07:34:54;;;;;;;5.20;1.50;;;;;;;;;;4978536;28;20277;-74
2022/05/28 07:37:20;;;;;;;4.03;1.60;;;;;;;;;;4971980;28;20180;-74
2022/05/28 07:39:45;;;;;;;3.60;1.80;;;;;;;;;;4968378;28;20180;-74
2022/05/28 07:42:10;;;;;;;3.83;1.40;;;;;;;;;;4969808;28;20185;-74
2022/05/28 07:44:35;;;;;;;3.40;1.20;;;;;;;;;;4972555;28;20225;-74
2022/05/28 07:47:04;;;;;;;5.47;2.13;;;;;;;;;;4993979;28;20192;-74
2022/05/28 07:49:29;;;;;;;2.53;1.30;;;;;;;;;;4987105;28;20180;-74
2022/05/28 07:51:55;;;;;;;3.33;1.60;;;;;;;;;;4989529;28;20189;-73
2022/05/28 07:54:20;;;;;;;1.70;1.23;;;;;;;;;;4973202;28;20192;-74
2022/05/28 07:56:45;;;;;;;2.73;1.60;;;;;;;;;;4993462;28;20792;-73
2022/05/28 07:59:10;;;;;;;4.43;1.97;;;;;;;;;;4969018;28;20452;-73
2022/05/28 08:01:38;;;;;;;4.77;1.40;;;;;;;;;;4965435;28;20224;-74
2022/05/28 08:04:03;;;;;;;3.03;1.37;;;;;;;;;;4985288;28;20183;-73
2022/05/28 08:06:32;;;;;;;2.67;1.73;;;;;;;;;;4974037;28;20191;-73
2022/05/28 08:08:57;;;;;;;5.87;2.57;;;;;;;;;;4988502;28;20194;-73
2022/05/28 08:11:23;;;;;;;4.83;1.63;;;;;;;;;;4979139;28;20187;-74
2022/05/28 08:13:48;;;;;;;3.30;1.50;;;;;;;;;;4989222;28;20186;-73
2022/05/28 08:16:14;;;;;;;4.27;1.70;;;;;;;;;;4972032;28;20213;-73
2022/05/28 08:18:40;;;;;;;4.57;1.90;;;;;;;;;;4973289;28;20179;-73
2022/05/28 08:23:49;;;;;;;3.10;1.70;;;;;;;;;;4988834;28;20181;-73
2022/05/28 08:26:15;;;;;;;4.63;1.60;;;;;;;;;;4964372;28;20174;-73
2022/05/28 08:28:41;;;;;;;3.57;1.50;;;;;;;;;;4972546;28;20195;-73
2022/05/28 08:31:06;;;;;;;3.50;1.40;;;;;;;;;;4990213;28;20448;-73
2022/05/28 08:33:32;;;;;;;6.20;1.70;;;;;;;;;;4971965;28;20187;-73
2022/05/28 08:35:58;;;;;;;4.60;1.50;;;;;;;;;;4974227;28;20290;-73
2022/05/28 08:38:24;;;;;;;6.67;1.60;;;;;;;;;;4985505;28;20183;-75
2022/05/28 08:40:54;;;;;;;2.87;1.23;;;;;;;;;;4979985;28;20281;-75
2022/05/28 08:43:20;;;;;;;4.77;2.00;;;;;;;;;;4985733;28;20243;-75
2022/05/28 08:45:47;;;;;;;2.00;1.10;;;;;;;;;;4969254;28;20321;-75
2022/05/28 08:48:15;;;;;;;5.10;1.40;;;;;;;;;;4986908;28;20382;-75
2022/05/28 08:50:46;;;;;;;5.07;1.30;;;;;;;;;;4988294;28;20197;-75
2022/05/28 08:53:13;;;;;;;2.97;1.40;;;;;;;;;;4987185;28;20219;-75
2022/05/28 08:55:45;;;;;;;3.77;1.40;;;;;;;;;;4978109;28;20196;-76
2022/05/28 08:58:14;;;;;;;1.77;1.33;;;;;;;;;;4984902;28;20188;-75
2022/05/28 09:00:46;;;;;;;3.93;1.43;;;;;;;;;;4968110;28;20194;-75
2022/05/28 09:03:16;;;;;;;2.20;1.10;;;;;;;;;;4972316;28;20227;-76
2022/05/28 09:05:47;;;;;;;1.63;1.00;;;;;;;;;;4987990;28;20189;-75
2022/05/28 09:08:13;;;;;;;3.53;1.50;;;;;;;;;;4976360;28;20188;-75
2022/05/28 09:10:49;;;;;;;1.70;1.27;;;;;;;;;;4984279;28;20264;-76
2022/05/28 09:13:43;;;;;;;2.73;1.60;;;;;;;;;;4987424;28;20192;-75
2022/05/28 09:16:16;;;;;;;3.77;1.30;;;;;;;;;;4950432;28;20221;-76
2022/05/28 09:18:41;;;;;;;3.63;1.47;;;;;;;;;;4968591;28;20177;-75
2022/05/28 09:21:07;;;;;;;4.90;1.80;;;;;;;;;;4982839;28;20189;-76
2022/05/28 09:23:39;;;;;;;4.17;1.90;;;;;;;;;;4984452;28;20191;-75
2022/05/28 09:26:05;;;;;;;1.43;1.10;;;;;;;;;;4981535;28;20186;-76
2022/05/28 09:28:33;;;;;;;3.43;1.40;;;;;;;;;;4985438;28;20192;-73
2022/05/28 09:31:05;;;;;;;3.13;1.30;;;;;;;;;;5078959;23;20260;-79
2022/05/28 09:33:36;;;;;;;4.13;1.87;;;;;;;;;;4981042;28;20271;-78
2022/05/28 09:36:04;;;;;;;2.63;1.23;;;;;;;;;;4978819;28;20204;-78
2022/05/28 09:38:48;;;;;;;3.27;1.33;;;;;;;;;;4979632;28;20191;-78
2022/05/28 09:41:14;;;;;;;3.07;1.40;;;;;;;;;;4978751;28;20242;-80
2022/05/28 09:44:05;;;;;;;3.07;1.30;;;;;;;;;;4992230;28;20193;-79
2022/05/28 09:46:32;;;;;;;4.77;1.60;;;;;;;;;;4977283;28;20256;-80
2022/05/28 09:48:58;;;;;;;4.53;1.20;;;;;;;;;;4981200;28;20383;-80
2022/05/28 09:51:25;;;;;;;1.77;1.60;;;;;;;;;;4987035;28;20218;-81
2022/05/28 09:56:41;;;;;;;2.77;1.50;;;;;;;;;;4981275;28;20234;-80
2022/05/28 09:59:18;;;;;;;3.70;1.43;;;;;;;;;;4977065;28;20179;-79
2022/05/28 10:01:50;;;;;;;3.50;1.53;;;;;;;;;;4993194;28;20207;-80
2022/05/28 10:04:31;;;;;;;2.27;1.87;;;;;;;;;;4966069;28;20234;-80
2022/05/28 10:07:05;;;;;;;2.13;1.20;;;;;;;;;;4967263;28;20190;-81
2022/05/28 10:09:32;;;;;;;4.83;1.37;;;;;;;;;;4986083;28;20182;-79
2022/05/28 10:12:00;;;;;;;4.00;1.33;;;;;;;;;;4964846;28;20505;-79
2022/05/28 10:14:28;;;;;;;1.43;1.30;;;;;;;;;;4967177;28;20187;-80
2022/05/28 10:16:54;;;;;;;2.00;1.40;;;;;;;;;;4960677;28;20217;-80
2022/05/28 10:19:25;;;;;;;2.60;1.43;;;;;;;;;;4959237;28;20200;-79
2022/05/28 10:21:52;;;;;;;5.97;1.50;;;;;;;;;;4992590;28;20188;-80
2022/05/28 10:24:18;;;;;;;2.53;1.47;;;;;;;;;;4975948;28;20234;-80
2022/05/28 10:26:45;;;;;;;2.67;1.13;;;;;;;;;;4984031;28;20187;-80
2022/05/28 10:29:18;;;;;;;2.77;1.53;;;;;;;;;;4963437;28;20203;-80
2022/05/28 10:31:45;;;;;;;2.90;1.50;;;;;;;;;;4980323;28;20235;-80
2022/05/28 10:34:22;;;;;;;5.53;1.73;;;;;;;;;;4983058;28;20197;-79
2022/05/28 10:36:48;;;;;;;4.00;1.40;;;;;;;;;;4964712;28;20207;-80
2022/05/28 10:39:14;;;;;;;3.90;1.37;;;;;;;;;;4989767;28;20181;-80
2022/05/28 10:41:41;;;;;;;5.30;2.60;;;;;;;;;;4972918;28;20183;-79
2022/05/28 10:44:07;;;;;;;1.20;1.10;;;;;;;;;;4992969;28;20181;-80
2022/05/28 10:46:51;;;;;;;1.20;1.10;;;;;;;;;;4971690;28;20172;-79
2022/05/28 10:49:34;;;;;;;1.67;1.47;;;;;;;;;;4986881;28;20237;-79
2022/05/28 10:52:03;;;;;;;1.43;1.20;;;;;;;;;;4972594;28;20256;-80
2022/05/28 10:54:34;;;;;;;2.00;1.40;;;;;;;;;;4998161;28;20188;-79
2022/05/28 10:57:03;;;;;;;4.13;1.87;;;;;;;;;;4968184;28;20215;-79
2022/05/28 10:59:49;;;;;;;2.60;1.50;;;;;;;;;;4983870;28;20200;-79
2022/05/28 11:02:34;;;;;;;3.53;1.23;;;;;;;;;;4971603;28;20201;-80
2022/05/28 11:05:15;;;;;;;2.43;1.50;;;;;;;;;;4977126;28;20179;-80
2022/05/28 11:07:51;;;;;;;2.87;1.50;;;;;;;;;;4990151;28;20184;-79
2022/05/28 11:10:19;;;;;;;3.90;1.73;;;;;;;;;;4966490;28;20191;-80
2022/05/28 11:12:48;;;;;;;3.97;1.50;;;;;;;;;;4988560;28;20239;-79
2022/05/28 11:15:16;;;;;;;4.73;1.43;;;;;;;;;;4974738;28;20178;-79
2022/05/28 11:18:00;;;;;;;3.00;1.40;;;;;;;;;;4976342;28;20230;-79
2022/05/28 11:20:32;;;;;;;3.20;1.50;;;;;;;;;;4971089;28;20172;-80
2022/05/28 11:23:00;;;;;;;3.47;1.37;;;;;;;;;;5006239;28;20179;-80
2022/05/28 11:25:34;;;;;;;7.30;1.63;;;;;;;;;;4979362;28;20191;-79
2022/05/28 11:28:02;;;;;;;3.53;1.47;;;;;;;;;;4985051;28;20209;-79
2022/05/28 11:30:37;;;;;;;3.17;1.60;;;;;;;;;;4974949;28;20213;-80
2022/05/28 11:33:03;;;;;;;4.53;1.70;;;;;;;;;;4992582;28;20225;-79
2022/05/28 11:35:38;;;;;;;6.50;4.20;;;;;;;;;;4992713;28;20243;-79
2022/05/28 11:38:12;;;;;;;5.03;1.97;;;;;;;;;;4975284;28;20187;-74
2022/05/28 11:40:44;;;;;;;3.50;1.53;;;;;;;;;;4976305;28;20235;-74
2022/05/28 11:43:12;;;;;;;1.60;1.30;;;;;;;;;;4994657;28;20245;-74
2022/05/28 11:45:40;;;;;;;4.40;1.97;;;;;;;;;;4974936;28;20182;-74
2022/05/28 11:51:27;;;;;;;2.40;1.47;;;;;;;;;;5003155;28;20178;-74
2022/05/28 11:51:28;;;;;;;2.87;1.87;;;;;;;;;;4911745;28;20317;-74
2022/05/28 11:53:57;;;;;;;4.60;2.73;;;;;;;;;;4982931;28;20209;-74
2022/05/28 11:56:28;;;;;;;1.67;1.30;;;;;;;;;;4985569;28;20213;-74
2022/05/28 11:58:59;;;;;;;3.97;1.23;;;;;;;;;;4966876;28;20179;-75
2022/05/28 12:01:27;;;;;;;2.33;1.50;;;;;;;;;;4960098;28;20210;-74
2022/05/28 12:03:52;;;;;;;3.17;1.50;;;;;;;;;;4993007;28;20173;-74
2022/05/28 12:06:32;;;;;;;2.57;1.27;;;;;;;;;;4989840;28;20186;-74
2022/05/28 12:09:00;;;;;;;4.47;1.47;;;;;;;;;;4997256;28;20191;-74
2022/05/28 12:11:33;;;;;;;1.87;1.20;;;;;;;;;;5001746;28;20274;-74
2022/05/28 12:14:00;;;;;;;3.57;1.50;;;;;;;;;;4976059;28;20225;-74
2022/05/28 12:16:32;;;;;;;3.17;1.10;;;;;;;;;;4974760;28;20211;-74
2022/05/28 12:19:01;;;;;;;5.43;1.90;;;;;;;;;;4974435;28;20181;-74
2022/05/28 12:21:27;;;;;;;2.40;1.30;;;;;;;;;;4988949;28;20175;-74
2022/05/28 12:24:03;;;;;;;2.57;2.00;;;;;;;;;;4994111;28;20204;-74
2022/05/28 12:26:47;;;;;;;3.50;1.30;;;;;;;;;;4970558;28;20208;-74
2022/05/28 12:29:25;;;;;;;2.53;1.40;;;;;;;;;;4974712;28;20207;-74
2022/05/28 12:31:50;;;;;;;3.10;2.27;;;;;;;;;;4978944;28;20237;-74
2022/05/28 12:34:20;;;;;;;1.67;1.40;;;;;;;;;;4972816;28;20277;-74
2022/05/28 12:36:49;;;;;;;4.53;1.40;;;;;;;;;;4972547;28;20218;-74
2022/05/28 12:39:14;;;;;;;2.77;1.20;;;;;;;;;;5004199;28;20657;-74
2022/05/28 12:41:40;;;;;;;4.82;1.80;;;;;;;;;;4980206;28;20211;-74
2022/05/28 12:44:19;;;;;;;2.77;1.40;;;;;;;;;;4970813;28;20196;-74
2022/05/28 12:46:49;;;;;;;1.73;1.40;;;;;;;;;;4974311;28;20184;-74
2022/05/28 12:49:17;;;;;;;2.93;1.50;;;;;;;;;;4974315;28;20189;-74
2022/05/28 12:52:01;;;;;;;4.37;1.87;;;;;;;;;;4974061;28;20176;-74
2022/05/28 12:54:29;;;;;;;1.80;1.23;;;;;;;;;;4990858;28;20177;-74
2022/05/28 12:57:24;;;;;;;6.00;1.47;;;;;;;;;;4978781;28;20235;-74
2022/05/28 12:59:57;;;;;;;1.83;1.20;;;;;;;;;;4958814;28;20191;-74
2022/05/28 13:02:25;;;;;;;2.60;1.20;;;;;;;;;;4974115;28;20204;-74
2022/05/28 13:05:03;;;;;;;2.83;1.80;;;;;;;;;;4975406;28;20178;-74
2022/05/28 13:07:36;;;;;;;3.40;1.20;;;;;;;;;;4983317;28;20179;-74
2022/05/28 13:10:07;;;;;;;2.00;1.30;;;;;;;;;;4989919;28;20184;-74
2022/05/28 13:12:45;;;;;;;2.90;1.50;;;;;;;;;;4995751;28;20172;-74
2022/05/28 13:15:19;;;;;;;2.80;1.40;;;;;;;;;;4989686;28;20248;-74
2022/05/28 13:18:03;;;;;;;2.10;1.40;;;;;;;;;;4987680;28;20570;-74
2022/05/28 13:20:34;;;;;;;2.63;1.33;;;;;;;;;;4972517;28;20224;-74
2022/05/28 13:23:09;;;;;;;3.90;1.50;;;;;;;;;;4973825;28;20199;-74
2022/05/28 13:25:41;;;;;;;2.87;1.27;;;;;;;;;;4997803;28;20182;-74
2022/05/28 13:28:09;;;;;;;2.17;1.50;;;;;;;;;;4972497;28;20191;-74
2022/05/28 13:30:47;;;;;;;3.73;1.63;;;;;;;;;;4963196;28;20284;-74
2022/05/28 13:33:15;;;;;;;2.07;1.20;;;;;;;;;;4988499;28;20189;-74
2022/05/28 13:35:42;;;;;;;2.57;1.43;;;;;;;;;;4966142;28;20309;-74
2022/05/28 13:38:07;;;;;;;11.73;1.77;;;;;;;;;;4961720;28;20203;-74
2022/05/28 13:40:32;;;;;;;3.13;1.60;;;;;;;;;;4987772;28;20181;-74
2022/05/28 13:43:00;;;;;;;4.30;2.00;;;;;;;;;;4992081;28;20273;-74
2022/05/28 13:45:30;;;;;;;2.67;1.40;;;;;;;;;;4986205;28;20266;-74
2022/05/28 13:48:01;;;;;;;2.17;1.30;;;;;;;;;;4976011;28;20191;-74
2022/05/28 13:50:28;;;;;;;2.00;1.30;;;;;;;;;;4972825;28;20215;-74
2022/05/28 13:52:56;;;;;;;2.83;1.33;;;;;;;;;;4965085;28;20192;-74
2022/05/28 13:55:24;;;;;;;2.37;1.47;;;;;;;;;;4986603;28;20184;-74
2022/05/28 13:57:49;;;;;;;1.93;1.40;;;;;;;;;;4973739;28;20185;-74
2022/05/28 14:00:32;;;;;;;2.70;1.87;;;;;;;;;;4976101;28;20186;-74
2022/05/28 14:03:00;;;;;;;2.63;1.40;;;;;;;;;;4971065;28;20211;-74
2022/05/28 14:05:26;;;;;;;3.87;1.70;;;;;;;;;;4968084;28;20239;-75
2022/05/28 14:07:52;;;;;;;3.90;1.67;;;;;;;;;;4972841;28;20202;-73
2022/05/28 14:12:50;;;;;;;2.43;1.50;;;;;;;;;;4989089;28;20224;-78
2022/05/28 14:15:25;;;;;;;3.00;1.60;;;;;;;;;;4999238;28;20196;-77
2022/05/28 14:17:50;;;;;;;3.77;1.60;;;;;;;;;;4983905;28;20440;-78
2022/05/28 14:20:30;;;;;;;3.40;1.97;;;;;;;;;;4972931;28;20190;-77
2022/05/28 14:22:56;;;;;;;2.90;1.43;;;;;;;;;;4991224;28;20189;-77
2022/05/28 14:25:24;;;;;;;4.40;1.47;;;;;;;;;;5002000;28;20188;-77
2022/05/28 14:27:50;;;;;;;4.23;1.40;;;;;;;;;;4981607;28;20176;-78
2022/05/28 14:30:16;;;;;;;1.97;1.27;;;;;;;;;;4968855;28;20225;-78
2022/05/28 14:32:42;;;;;;;3.13;1.53;;;;;;;;;;5008380;28;20220;-77
2022/05/28 14:35:09;;;;;;;1.90;1.50;;;;;;;;;;4997770;28;20193;-78
2022/05/28 14:37:35;;;;;;;2.60;1.43;;;;;;;;;;4991054;28;20233;-78
2022/05/28 14:40:01;;;;;;;5.10;1.70;;;;;;;;;;4965178;28;20523;-77
2022/05/28 14:42:28;;;;;;;3.23;1.50;;;;;;;;;;4976574;28;20173;-78
2022/05/28 14:44:54;;;;;;;2.63;1.50;;;;;;;;;;4969281;28;20197;-78
2022/05/28 14:47:26;;;;;;;2.47;1.70;;;;;;;;;;4991475;28;20179;-78
2022/05/28 14:49:53;;;;;;;3.00;1.90;;;;;;;;;;4971230;28;20268;-77
2022/05/28 14:52:20;;;;;;;2.30;1.30;;;;;;;;;;5010848;28;20273;-78
2022/05/28 14:54:50;;;;;;;3.97;3.40;;;;;;;;;;4971199;28;20186;-77
2022/05/28 14:57:23;;;;;;;3.73;1.90;;;;;;;;;;5001464;28;20231;-77
2022/05/28 14:59:49;;;;;;;4.10;1.40;;;;;;;;;;4969906;28;20170;-78